sensor_id;sensor_type;location;lat;lon;timestamp;temperature;humidity
31661;DHT22;18267;52.234;7.444;2022-11-24T00:01:41;7.90;99.90
31661;DHT22;18267;52.234;7.444;2022-11-24T00:04:07;7.80;99.90
31661;DHT22;18267;52.234;7.444;2022-11-24T00:06:34;7.90;99.90
31661;DHT22;18267;52.234;7.444;2022-11-24T00:09:00;7.90;99.90
31661;DHT22;18267;52.234;7.444;2022-11-24T00:11:29;8.00;99.90
31661;DHT22;18267;52.234;7.444;2022-11-24T00:13:55;8.00;99.90
31661;DHT22;18267;52.234;7.444;2022-11-24T00:16:26;8.00;99.90
31661;DHT22;18267;52.234;7.444;2022-11-24T00:18:53;8.00;99.90
31661;DHT22;18267;52.234;7.444;2022-11-24T00:21:20;8.10;99.90
31661;DHT22;18267;52.234;7.444;2022-11-24T00:23:46;8.00;99.90
31661;DHT22;18267;52.234;7.444;2022-11-24T00:26:14;8.20;99.90
31661;DHT22;18267;52.234;7.444;2022-11-24T00:28:40;8.10;99.90
31661;DHT22;18267;52.234;7.444;2022-11-24T00:31:25;8.20;99.90
31661;DHT22;18267;52.234;7.444;2022-11-24T00:33:53;8.10;99.90
31661;DHT22;18267;52.234;7.444;2022-11-24T00:36:21;8.20;99.90
31661;DHT22;18267;52.234;7.444;2022-11-24T00:38:51;8.20;99.90
31661;DHT22;18267;52.234;7.444;2022-11-24T00:41:17;8.10;99.90
31661;DHT22;18267;52.234;7.444;2022-11-24T00:43:42;8.10;99.90
31661;DHT22;18267;52.234;7.444;2022-11-24T00:46:08;8.20;99.90
31661;DHT22;18267;52.234;7.444;2022-11-24T00:48:33;8.10;99.90
31661;DHT22;18267;52.234;7.444;2022-11-24T00:51:01;8.10;99.90
31661;DHT22;18267;52.234;7.444;2022-11-24T00:53:28;8.20;99.90
31661;DHT22;18267;52.234;7.444;2022-11-24T00:55:54;8.10;99.90
31661;DHT22;18267;52.234;7.444;2022-11-24T00:58:20;8.20;99.90
31661;DHT22;18267;52.234;7.444;2022-11-24T01:00:46;8.20;99.90
31661;DHT22;18267;52.234;7.444;2022-11-24T01:03:12;8.10;99.90
31661;DHT22;18267;52.234;7.444;2022-11-24T01:05:39;8.10;99.90
31661;DHT22;18267;52.234;7.444;2022-11-24T01:08:05;8.10;99.90
31661;DHT22;18267;52.234;7.444;2022-11-24T01:10:31;8.10;99.90
31661;DHT22;18267;52.234;7.444;2022-11-24T01:12:57;8.00;99.90
31661;DHT22;18267;52.234;7.444;2022-11-24T01:15:22;8.10;99.90
31661;DHT22;18267;52.234;7.444;2022-11-24T01:17:48;8.10;99.90
31661;DHT22;18267;52.234;7.444;2022-11-24T01:20:14;8.20;99.90
31661;DHT22;18267;52.234;7.444;2022-11-24T01:22:39;8.10;99.90
31661;DHT22;18267;52.234;7.444;2022-11-24T01:25:07;8.10;99.90
31661;DHT22;18267;52.234;7.444;2022-11-24T01:27:33;8.20;99.90
31661;DHT22;18267;52.234;7.444;2022-11-24T01:29:59;8.20;99.90
31661;DHT22;18267;52.234;7.444;2022-11-24T01:32:25;8.20;99.90
31661;DHT22;18267;52.234;7.444;2022-11-24T01:34:50;8.20;99.90
31661;DHT22;18267;52.234;7.444;2022-11-24T01:37:17;8.20;99.90
31661;DHT22;18267;52.234;7.444;2022-11-24T01:39:42;8.10;99.90
31661;DHT22;18267;52.234;7.444;2022-11-24T01:42:08;8.20;99.90
31661;DHT22;18267;52.234;7.444;2022-11-24T01:44:34;8.20;99.90
31661;DHT22;18267;52.234;7.444;2022-11-24T01:47:03;8.20;99.90
31661;DHT22;18267;52.234;7.444;2022-11-24T01:49:43;8.20;99.90
31661;DHT22;18267;52.234;7.444;2022-11-24T01:52:16;8.10;99.90
31661;DHT22;18267;52.234;7.444;2022-11-24T01:54:50;8.20;99.90
31661;DHT22;18267;52.234;7.444;2022-11-24T01:57:26;8.10;99.90
31661;DHT22;18267;52.234;7.444;2022-11-24T01:59:56;8.10;99.90
31661;DHT22;18267;52.234;7.444;2022-11-24T02:02:25;8.20;99.90
31661;DHT22;18267;52.234;7.444;2022-11-24T02:04:52;8.20;99.90
31661;DHT22;18267;52.234;7.444;2022-11-24T02:07:19;8.30;99.90
31661;DHT22;18267;52.234;7.444;2022-11-24T02:09:48;8.20;99.90
31661;DHT22;18267;52.234;7.444;2022-11-24T02:12:16;8.10;99.90
31661;DHT22;18267;52.234;7.444;2022-11-24T02:14:42;8.10;99.90
31661;DHT22;18267;52.234;7.444;2022-11-24T02:17:09;8.20;99.90
31661;DHT22;18267;52.234;7.444;2022-11-24T02:19:41;8.20;99.90
31661;DHT22;18267;52.234;7.444;2022-11-24T02:22:13;8.30;99.90
31661;DHT22;18267;52.234;7.444;2022-11-24T02:24:46;8.20;99.90
31661;DHT22;18267;52.234;7.444;2022-11-24T02:27:14;8.10;99.90
31661;DHT22;18267;52.234;7.444;2022-11-24T02:29:40;8.10;99.90
31661;DHT22;18267;52.234;7.444;2022-11-24T02:32:06;8.10;99.90
31661;DHT22;18267;52.234;7.444;2022-11-24T02:34:32;8.10;99.90
31661;DHT22;18267;52.234;7.444;2022-11-24T02:36:58;8.00;99.90
31661;DHT22;18267;52.234;7.444;2022-11-24T02:39:23;8.10;99.90
31661;DHT22;18267;52.234;7.444;2022-11-24T02:41:52;8.00;99.90
31661;DHT22;18267;52.234;7.444;2022-11-24T02:44:21;8.10;99.90
31661;DHT22;18267;52.234;7.444;2022-11-24T02:46:49;8.00;99.90
31661;DHT22;18267;52.234;7.444;2022-11-24T02:49:14;8.00;99.90
31661;DHT22;18267;52.234;7.444;2022-11-24T02:51:40;8.00;99.90
31661;DHT22;18267;52.234;7.444;2022-11-24T02:54:06;7.90;99.90
31661;DHT22;18267;52.234;7.444;2022-11-24T02:56:31;7.90;99.90
31661;DHT22;18267;52.234;7.444;2022-11-24T02:58:57;7.90;99.90
31661;DHT22;18267;52.234;7.444;2022-11-24T03:01:22;7.90;99.90
31661;DHT22;18267;52.234;7.444;2022-11-24T03:03:48;7.90;99.90
31661;DHT22;18267;52.234;7.444;2022-11-24T03:06:13;7.90;99.90
31661;DHT22;18267;52.234;7.444;2022-11-24T03:08:39;7.90;99.90
31661;DHT22;18267;52.234;7.444;2022-11-24T03:11:04;7.90;99.90
31661;DHT22;18267;52.234;7.444;2022-11-24T03:13:30;7.90;99.90
31661;DHT22;18267;52.234;7.444;2022-11-24T03:15:55;7.90;99.90
31661;DHT22;18267;52.234;7.444;2022-11-24T03:18:21;8.00;99.90
31661;DHT22;18267;52.234;7.444;2022-11-24T03:20:46;8.00;99.90
31661;DHT22;18267;52.234;7.444;2022-11-24T03:23:12;8.00;99.90
31661;DHT22;18267;52.234;7.444;2022-11-24T03:25:37;8.00;99.90
31661;DHT22;18267;52.234;7.444;2022-11-24T03:28:04;8.00;99.90
31661;DHT22;18267;52.234;7.444;2022-11-24T03:30:29;8.00;99.90
31661;DHT22;18267;52.234;7.444;2022-11-24T03:32:55;8.00;99.90
31661;DHT22;18267;52.234;7.444;2022-11-24T03:35:21;7.90;99.90
31661;DHT22;18267;52.234;7.444;2022-11-24T03:37:47;8.00;99.90
31661;DHT22;18267;52.234;7.444;2022-11-24T03:40:13;8.00;99.90
31661;DHT22;18267;52.234;7.444;2022-11-24T03:42:39;8.00;99.90
31661;DHT22;18267;52.234;7.444;2022-11-24T03:45:05;8.00;99.90
31661;DHT22;18267;52.234;7.444;2022-11-24T03:47:30;8.00;99.90
31661;DHT22;18267;52.234;7.444;2022-11-24T03:49:56;8.10;99.90
31661;DHT22;18267;52.234;7.444;2022-11-24T03:52:22;8.00;99.90
31661;DHT22;18267;52.234;7.444;2022-11-24T03:54:47;8.00;99.90
31661;DHT22;18267;52.234;7.444;2022-11-24T03:57:13;8.00;99.90
31661;DHT22;18267;52.234;7.444;2022-11-24T03:59:38;8.00;99.90
31661;DHT22;18267;52.234;7.444;2022-11-24T04:02:04;8.00;99.90
31661;DHT22;18267;52.234;7.444;2022-11-24T04:04:29;8.00;99.90
31661;DHT22;18267;52.234;7.444;2022-11-24T04:06:55;7.90;99.90
31661;DHT22;18267;52.234;7.444;2022-11-24T04:09:21;7.90;99.90
31661;DHT22;18267;52.234;7.444;2022-11-24T04:11:46;8.00;99.90
31661;DHT22;18267;52.234;7.444;2022-11-24T04:14:30;7.90;99.90
31661;DHT22;18267;52.234;7.444;2022-11-24T04:16:56;7.90;99.90
31661;DHT22;18267;52.234;7.444;2022-11-24T04:19:21;7.80;99.90
31661;DHT22;18267;52.234;7.444;2022-11-24T04:21:47;7.90;99.90
31661;DHT22;18267;52.234;7.444;2022-11-24T04:24:12;7.80;99.90
31661;DHT22;18267;52.234;7.444;2022-11-24T04:26:39;7.80;99.90
31661;DHT22;18267;52.234;7.444;2022-11-24T04:29:04;7.80;99.90
31661;DHT22;18267;52.234;7.444;2022-11-24T04:31:30;7.80;99.90
31661;DHT22;18267;52.234;7.444;2022-11-24T04:33:55;7.80;99.90
31661;DHT22;18267;52.234;7.444;2022-11-24T04:36:21;7.80;99.90
31661;DHT22;18267;52.234;7.444;2022-11-24T04:38:46;7.90;99.90
31661;DHT22;18267;52.234;7.444;2022-11-24T04:41:12;7.90;99.90
31661;DHT22;18267;52.234;7.444;2022-11-24T04:43:38;7.80;99.90
31661;DHT22;18267;52.234;7.444;2022-11-24T04:46:03;7.80;99.90
31661;DHT22;18267;52.234;7.444;2022-11-24T04:48:29;7.80;99.90
31661;DHT22;18267;52.234;7.444;2022-11-24T04:50:54;7.80;99.90
31661;DHT22;18267;52.234;7.444;2022-11-24T04:53:20;7.80;99.90
31661;DHT22;18267;52.234;7.444;2022-11-24T04:55:45;7.80;99.90
31661;DHT22;18267;52.234;7.444;2022-11-24T04:58:11;7.80;99.90
31661;DHT22;18267;52.234;7.444;2022-11-24T05:00:37;7.80;99.90
31661;DHT22;18267;52.234;7.444;2022-11-24T05:03:03;7.80;99.90
31661;DHT22;18267;52.234;7.444;2022-11-24T05:05:29;7.80;99.90
31661;DHT22;18267;52.234;7.444;2022-11-24T05:07:54;7.80;99.90
31661;DHT22;18267;52.234;7.444;2022-11-24T05:10:20;7.80;99.90
31661;DHT22;18267;52.234;7.444;2022-11-24T05:13:04;7.80;99.90
31661;DHT22;18267;52.234;7.444;2022-11-24T05:15:30;7.80;99.90
31661;DHT22;18267;52.234;7.444;2022-11-24T05:17:55;7.80;99.90
31661;DHT22;18267;52.234;7.444;2022-11-24T05:20:21;7.80;99.90
31661;DHT22;18267;52.234;7.444;2022-11-24T05:22:47;7.90;99.90
31661;DHT22;18267;52.234;7.444;2022-11-24T05:25:13;7.90;99.90
31661;DHT22;18267;52.234;7.444;2022-11-24T05:27:39;7.90;99.90
31661;DHT22;18267;52.234;7.444;2022-11-24T05:30:05;7.90;99.90
31661;DHT22;18267;52.234;7.444;2022-11-24T05:32:31;7.80;99.90
31661;DHT22;18267;52.234;7.444;2022-11-24T05:34:57;7.80;99.90
31661;DHT22;18267;52.234;7.444;2022-11-24T05:37:26;7.80;99.90
31661;DHT22;18267;52.234;7.444;2022-11-24T05:39:52;7.80;99.90
31661;DHT22;18267;52.234;7.444;2022-11-24T05:42:18;7.80;99.90
31661;DHT22;18267;52.234;7.444;2022-11-24T05:45:03;7.80;99.90
31661;DHT22;18267;52.234;7.444;2022-11-24T05:47:28;7.80;99.90
31661;DHT22;18267;52.234;7.444;2022-11-24T05:49:54;7.70;99.90
31661;DHT22;18267;52.234;7.444;2022-11-24T05:52:19;7.70;99.90
31661;DHT22;18267;52.234;7.444;2022-11-24T05:54:45;7.80;99.90
31661;DHT22;18267;52.234;7.444;2022-11-24T05:57:10;7.80;99.90
31661;DHT22;18267;52.234;7.444;2022-11-24T05:59:37;7.80;99.90
31661;DHT22;18267;52.234;7.444;2022-11-24T06:02:03;7.80;99.90
31661;DHT22;18267;52.234;7.444;2022-11-24T06:04:28;7.80;99.90
31661;DHT22;18267;52.234;7.444;2022-11-24T06:06:54;7.80;99.90
31661;DHT22;18267;52.234;7.444;2022-11-24T06:09:19;7.70;99.90
31661;DHT22;18267;52.234;7.444;2022-11-24T06:11:46;7.80;99.90
31661;DHT22;18267;52.234;7.444;2022-11-24T06:14:12;7.80;99.90
31661;DHT22;18267;52.234;7.444;2022-11-24T06:16:38;7.80;99.90
31661;DHT22;18267;52.234;7.444;2022-11-24T06:19:03;7.80;99.90
31661;DHT22;18267;52.234;7.444;2022-11-24T06:21:29;7.90;99.90
31661;DHT22;18267;52.234;7.444;2022-11-24T06:23:54;7.90;99.90
31661;DHT22;18267;52.234;7.444;2022-11-24T06:26:20;8.10;99.90
31661;DHT22;18267;52.234;7.444;2022-11-24T06:28:45;8.10;99.90
31661;DHT22;18267;52.234;7.444;2022-11-24T06:31:11;8.10;99.90
31661;DHT22;18267;52.234;7.444;2022-11-24T06:33:37;8.10;99.90
31661;DHT22;18267;52.234;7.444;2022-11-24T06:36:05;8.20;99.90
31661;DHT22;18267;52.234;7.444;2022-11-24T06:38:31;8.20;99.90
31661;DHT22;18267;52.234;7.444;2022-11-24T06:41:08;8.20;99.90
31661;DHT22;18267;52.234;7.444;2022-11-24T06:43:34;8.20;99.90
31661;DHT22;18267;52.234;7.444;2022-11-24T06:46:01;8.10;99.90
31661;DHT22;18267;52.234;7.444;2022-11-24T06:48:27;8.20;99.90
31661;DHT22;18267;52.234;7.444;2022-11-24T06:50:53;8.20;99.90
31661;DHT22;18267;52.234;7.444;2022-11-24T06:53:22;8.10;99.90
31661;DHT22;18267;52.234;7.444;2022-11-24T06:55:48;8.10;99.90
31661;DHT22;18267;52.234;7.444;2022-11-24T06:58:14;8.10;99.90
31661;DHT22;18267;52.234;7.444;2022-11-24T07:00:40;8.10;99.90
31661;DHT22;18267;52.234;7.444;2022-11-24T07:03:06;8.10;99.90
31661;DHT22;18267;52.234;7.444;2022-11-24T07:05:31;8.00;99.90
31661;DHT22;18267;52.234;7.444;2022-11-24T07:08:00;8.20;99.90
31661;DHT22;18267;52.234;7.444;2022-11-24T07:10:25;8.10;99.90
31661;DHT22;18267;52.234;7.444;2022-11-24T07:12:51;8.10;99.90
31661;DHT22;18267;52.234;7.444;2022-11-24T07:15:17;8.20;99.90
31661;DHT22;18267;52.234;7.444;2022-11-24T07:17:42;8.20;99.90
31661;DHT22;18267;52.234;7.444;2022-11-24T07:20:08;8.30;99.90
31661;DHT22;18267;52.234;7.444;2022-11-24T07:22:34;8.30;99.90
31661;DHT22;18267;52.234;7.444;2022-11-24T07:25:00;8.40;99.90
31661;DHT22;18267;52.234;7.444;2022-11-24T07:27:26;8.50;99.90
31661;DHT22;18267;52.234;7.444;2022-11-24T07:29:52;8.50;99.90
31661;DHT22;18267;52.234;7.444;2022-11-24T07:32:18;8.70;99.90
31661;DHT22;18267;52.234;7.444;2022-11-24T07:34:43;8.70;99.90
31661;DHT22;18267;52.234;7.444;2022-11-24T07:37:09;8.60;99.90
31661;DHT22;18267;52.234;7.444;2022-11-24T07:39:34;8.60;99.90
31661;DHT22;18267;52.234;7.444;2022-11-24T07:42:00;8.60;99.90
31661;DHT22;18267;52.234;7.444;2022-11-24T07:44:26;8.70;99.90
31661;DHT22;18267;52.234;7.444;2022-11-24T07:46:51;8.70;99.90
31661;DHT22;18267;52.234;7.444;2022-11-24T07:49:18;8.60;99.90
31661;DHT22;18267;52.234;7.444;2022-11-24T07:51:44;8.60;99.90
31661;DHT22;18267;52.234;7.444;2022-11-24T07:54:09;8.60;99.90
31661;DHT22;18267;52.234;7.444;2022-11-24T07:56:35;8.70;99.90
31661;DHT22;18267;52.234;7.444;2022-11-24T07:59:00;8.60;99.90
31661;DHT22;18267;52.234;7.444;2022-11-24T08:01:26;8.70;99.90
31661;DHT22;18267;52.234;7.444;2022-11-24T08:03:52;8.70;99.90
31661;DHT22;18267;52.234;7.444;2022-11-24T08:06:18;8.80;99.90
31661;DHT22;18267;52.234;7.444;2022-11-24T08:08:44;8.70;99.90
31661;DHT22;18267;52.234;7.444;2022-11-24T08:11:12;8.80;99.90
31661;DHT22;18267;52.234;7.444;2022-11-24T08:13:38;8.80;99.90
31661;DHT22;18267;52.234;7.444;2022-11-24T08:16:09;8.80;99.90
31661;DHT22;18267;52.234;7.444;2022-11-24T08:18:35;8.80;99.90
31661;DHT22;18267;52.234;7.444;2022-11-24T08:21:02;8.80;99.90
31661;DHT22;18267;52.234;7.444;2022-11-24T08:23:28;8.90;99.90
31661;DHT22;18267;52.234;7.444;2022-11-24T08:25:54;8.90;99.90
31661;DHT22;18267;52.234;7.444;2022-11-24T08:28:21;9.00;99.90
31661;DHT22;18267;52.234;7.444;2022-11-24T08:30:47;9.00;99.90
31661;DHT22;18267;52.234;7.444;2022-11-24T08:33:13;9.00;99.90
31661;DHT22;18267;52.234;7.444;2022-11-24T08:35:38;8.90;99.90
31661;DHT22;18267;52.234;7.444;2022-11-24T08:38:04;9.00;99.90
31661;DHT22;18267;52.234;7.444;2022-11-24T08:40:31;9.00;99.90
31661;DHT22;18267;52.234;7.444;2022-11-24T08:42:57;8.90;99.90
31661;DHT22;18267;52.234;7.444;2022-11-24T08:45:23;8.90;99.90
31661;DHT22;18267;52.234;7.444;2022-11-24T08:47:53;8.90;99.90
31661;DHT22;18267;52.234;7.444;2022-11-24T08:50:19;8.90;99.90
31661;DHT22;18267;52.234;7.444;2022-11-24T08:52:44;8.90;99.90
31661;DHT22;18267;52.234;7.444;2022-11-24T08:55:10;9.00;99.90
31661;DHT22;18267;52.234;7.444;2022-11-24T08:57:36;9.00;99.90
31661;DHT22;18267;52.234;7.444;2022-11-24T09:00:03;9.10;99.90
31661;DHT22;18267;52.234;7.444;2022-11-24T09:02:29;9.20;99.90
31661;DHT22;18267;52.234;7.444;2022-11-24T09:04:54;9.30;99.90
31661;DHT22;18267;52.234;7.444;2022-11-24T09:07:20;9.30;99.90
31661;DHT22;18267;52.234;7.444;2022-11-24T09:09:45;9.30;99.90
31661;DHT22;18267;52.234;7.444;2022-11-24T09:12:11;9.30;99.90
31661;DHT22;18267;52.234;7.444;2022-11-24T09:14:36;9.40;99.90
31661;DHT22;18267;52.234;7.444;2022-11-24T09:17:02;9.50;99.90
31661;DHT22;18267;52.234;7.444;2022-11-24T09:19:27;9.60;99.90
31661;DHT22;18267;52.234;7.444;2022-11-24T09:21:53;9.70;99.90
31661;DHT22;18267;52.234;7.444;2022-11-24T09:24:19;9.70;99.90
31661;DHT22;18267;52.234;7.444;2022-11-24T09:26:46;9.60;99.90
31661;DHT22;18267;52.234;7.444;2022-11-24T09:29:11;9.50;99.90
31661;DHT22;18267;52.234;7.444;2022-11-24T09:31:38;9.60;99.90
31661;DHT22;18267;52.234;7.444;2022-11-24T09:34:05;9.60;99.90
31661;DHT22;18267;52.234;7.444;2022-11-24T09:36:32;9.60;99.90
31661;DHT22;18267;52.234;7.444;2022-11-24T09:38:58;9.60;99.90
31661;DHT22;18267;52.234;7.444;2022-11-24T09:50:12;9.50;99.90
31661;DHT22;18267;52.234;7.444;2022-11-24T09:53:18;9.50;99.90
31661;DHT22;18267;52.234;7.444;2022-11-24T09:55:48;9.50;99.90
31661;DHT22;18267;52.234;7.444;2022-11-24T09:58:34;9.50;99.90
31661;DHT22;18267;52.234;7.444;2022-11-24T10:01:20;9.50;99.90
31661;DHT22;18267;52.234;7.444;2022-11-24T10:03:51;9.50;99.90
31661;DHT22;18267;52.234;7.444;2022-11-24T10:06:26;9.60;99.90
31661;DHT22;18267;52.234;7.444;2022-11-24T10:09:12;9.80;99.90
31661;DHT22;18267;52.234;7.444;2022-11-24T10:23:40;9.90;99.90
31661;DHT22;18267;52.234;7.444;2022-11-24T10:26:31;10.00;99.90
31661;DHT22;18267;52.234;7.444;2022-11-24T10:28:59;10.00;99.90
31661;DHT22;18267;52.234;7.444;2022-11-24T10:31:35;10.00;99.90
31661;DHT22;18267;52.234;7.444;2022-11-24T10:34:08;9.90;99.90
31661;DHT22;18267;52.234;7.444;2022-11-24T10:37:05;10.00;99.90
31661;DHT22;18267;52.234;7.444;2022-11-24T10:42:32;10.10;99.90
31661;DHT22;18267;52.234;7.444;2022-11-24T10:45:16;10.00;99.90
31661;DHT22;18267;52.234;7.444;2022-11-24T10:47:42;10.20;99.90
31661;DHT22;18267;52.234;7.444;2022-11-24T10:52:40;10.20;99.90
31661;DHT22;18267;52.234;7.444;2022-11-24T10:55:06;10.20;99.90
31661;DHT22;18267;52.234;7.444;2022-11-24T10:57:37;10.20;99.90
31661;DHT22;18267;52.234;7.444;2022-11-24T11:02:49;10.10;99.90
31661;DHT22;18267;52.234;7.444;2022-11-24T11:05:51;10.20;99.90
31661;DHT22;18267;52.234;7.444;2022-11-24T11:08:26;10.20;99.90
31661;DHT22;18267;52.234;7.444;2022-11-24T11:13:49;10.30;99.90
31661;DHT22;18267;52.234;7.444;2022-11-24T11:16:43;10.20;99.90
31661;DHT22;18267;52.234;7.444;2022-11-24T11:19:35;10.20;99.90
31661;DHT22;18267;52.234;7.444;2022-11-24T11:24:34;10.10;99.90
31661;DHT22;18267;52.234;7.444;2022-11-24T11:29:42;10.30;99.90
31661;DHT22;18267;52.234;7.444;2022-11-24T11:32:22;10.50;99.90
31661;DHT22;18267;52.234;7.444;2022-11-24T11:34:50;10.50;99.90
31661;DHT22;18267;52.234;7.444;2022-11-24T11:37:18;10.60;99.90
31661;DHT22;18267;52.234;7.444;2022-11-24T11:39:49;10.50;99.90
31661;DHT22;18267;52.234;7.444;2022-11-24T11:42:23;10.60;99.90
31661;DHT22;18267;52.234;7.444;2022-11-24T11:47:51;10.60;99.90
31661;DHT22;18267;52.234;7.444;2022-11-24T11:50:24;10.60;99.90
31661;DHT22;18267;52.234;7.444;2022-11-24T12:12:41;10.50;99.90
31661;DHT22;18267;52.234;7.444;2022-11-24T12:15:48;10.50;99.90
31661;DHT22;18267;52.234;7.444;2022-11-24T12:21:22;10.50;99.90
31661;DHT22;18267;52.234;7.444;2022-11-24T12:24:09;10.50;99.90
31661;DHT22;18267;52.234;7.444;2022-11-24T12:26:57;10.50;99.90
31661;DHT22;18267;52.234;7.444;2022-11-24T12:32:27;10.50;99.90
31661;DHT22;18267;52.234;7.444;2022-11-24T12:43:34;10.70;99.90
31661;DHT22;18267;52.234;7.444;2022-11-24T12:46:07;10.70;99.90
31661;DHT22;18267;52.234;7.444;2022-11-24T12:51:46;10.70;99.90
31661;DHT22;18267;52.234;7.444;2022-11-24T12:54:16;10.70;99.90
31661;DHT22;18267;52.234;7.444;2022-11-24T13:02:49;10.70;99.90
31661;DHT22;18267;52.234;7.444;2022-11-24T13:05:31;10.70;99.90
31661;DHT22;18267;52.234;7.444;2022-11-24T13:08:02;10.80;99.90
31661;DHT22;18267;52.234;7.444;2022-11-24T13:10:36;10.70;99.90
31661;DHT22;18267;52.234;7.444;2022-11-24T13:13:12;10.70;99.90
31661;DHT22;18267;52.234;7.444;2022-11-24T13:18:46;10.50;99.90
31661;DHT22;18267;52.234;7.444;2022-11-24T13:21:32;10.60;99.90
31661;DHT22;18267;52.234;7.444;2022-11-24T13:24:05;10.50;99.90
31661;DHT22;18267;52.234;7.444;2022-11-24T13:26:47;10.40;99.90
31661;DHT22;18267;52.234;7.444;2022-11-24T13:29:34;10.40;99.90
31661;DHT22;18267;52.234;7.444;2022-11-24T13:40:00;10.40;99.90
31661;DHT22;18267;52.234;7.444;2022-11-24T13:42:28;10.50;99.90
31661;DHT22;18267;52.234;7.444;2022-11-24T13:45:02;10.40;99.90
31661;DHT22;18267;52.234;7.444;2022-11-24T13:47:32;10.40;99.90
31661;DHT22;18267;52.234;7.444;2022-11-24T13:49:59;10.30;99.90
31661;DHT22;18267;52.234;7.444;2022-11-24T13:57:47;10.10;99.90
31661;DHT22;18267;52.234;7.444;2022-11-24T14:00:29;10.10;99.90
31661;DHT22;18267;52.234;7.444;2022-11-24T14:03:57;10.10;99.90
31661;DHT22;18267;52.234;7.444;2022-11-24T14:06:03;10.10;99.90
31661;DHT22;18267;52.234;7.444;2022-11-24T14:08:31;10.00;99.90
31661;DHT22;18267;52.234;7.444;2022-11-24T14:10:59;10.00;99.90
31661;DHT22;18267;52.234;7.444;2022-11-24T14:13:27;10.10;99.90
31661;DHT22;18267;52.234;7.444;2022-11-24T14:16:17;10.00;99.90
31661;DHT22;18267;52.234;7.444;2022-11-24T14:18:44;10.00;99.90
31661;DHT22;18267;52.234;7.444;2022-11-24T14:21:37;10.00;99.90
31661;DHT22;18267;52.234;7.444;2022-11-24T14:24:23;10.00;99.90
31661;DHT22;18267;52.234;7.444;2022-11-24T14:26:51;10.00;99.90
31661;DHT22;18267;52.234;7.444;2022-11-24T14:29:19;10.00;99.90
31661;DHT22;18267;52.234;7.444;2022-11-24T14:31:58;10.00;99.90
31661;DHT22;18267;52.234;7.444;2022-11-24T14:34:26;10.00;99.90
31661;DHT22;18267;52.234;7.444;2022-11-24T14:36:52;9.90;99.90
31661;DHT22;18267;52.234;7.444;2022-11-24T14:39:21;9.90;99.90
31661;DHT22;18267;52.234;7.444;2022-11-24T14:42:03;9.80;99.90
31661;DHT22;18267;52.234;7.444;2022-11-24T14:44:32;9.80;99.90
31661;DHT22;18267;52.234;7.444;2022-11-24T14:47:10;9.80;99.90
31661;DHT22;18267;52.234;7.444;2022-11-24T14:49:40;9.70;99.90
31661;DHT22;18267;52.234;7.444;2022-11-24T14:52:14;9.70;99.90
31661;DHT22;18267;52.234;7.444;2022-11-24T14:54:59;9.70;99.90
31661;DHT22;18267;52.234;7.444;2022-11-24T14:57:36;9.70;99.90
31661;DHT22;18267;52.234;7.444;2022-11-24T15:03:11;9.70;99.90
31661;DHT22;18267;52.234;7.444;2022-11-24T15:05:52;9.70;99.90
31661;DHT22;18267;52.234;7.444;2022-11-24T15:08:18;9.60;99.90
31661;DHT22;18267;52.234;7.444;2022-11-24T15:10:44;9.60;99.90
31661;DHT22;18267;52.234;7.444;2022-11-24T15:13:19;9.60;99.90
31661;DHT22;18267;52.234;7.444;2022-11-24T15:16:07;9.60;99.90
31661;DHT22;18267;52.234;7.444;2022-11-24T15:18:47;9.60;99.90
31661;DHT22;18267;52.234;7.444;2022-11-24T15:21:13;9.50;99.90
31661;DHT22;18267;52.234;7.444;2022-11-24T15:23:40;9.40;99.90
31661;DHT22;18267;52.234;7.444;2022-11-24T15:28:33;9.40;99.90
31661;DHT22;18267;52.234;7.444;2022-11-24T15:31:00;9.30;99.90
31661;DHT22;18267;52.234;7.444;2022-11-24T15:33:28;9.30;99.90
31661;DHT22;18267;52.234;7.444;2022-11-24T15:35:54;9.30;99.90
31661;DHT22;18267;52.234;7.444;2022-11-24T15:38:20;9.20;99.90
31661;DHT22;18267;52.234;7.444;2022-11-24T15:40:48;9.20;99.90
31661;DHT22;18267;52.234;7.444;2022-11-24T15:45:45;9.10;99.90
31661;DHT22;18267;52.234;7.444;2022-11-24T15:48:11;9.10;99.90
31661;DHT22;18267;52.234;7.444;2022-11-24T15:50:37;9.10;99.90
31661;DHT22;18267;52.234;7.444;2022-11-24T15:53:03;9.00;99.90
31661;DHT22;18267;52.234;7.444;2022-11-24T15:55:30;9.10;99.90
31661;DHT22;18267;52.234;7.444;2022-11-24T15:57:56;9.10;99.90
31661;DHT22;18267;52.234;7.444;2022-11-24T16:00:22;9.00;99.90
31661;DHT22;18267;52.234;7.444;2022-11-24T16:02:48;9.00;99.90
31661;DHT22;18267;52.234;7.444;2022-11-24T16:05:15;9.00;99.90
31661;DHT22;18267;52.234;7.444;2022-11-24T16:07:42;8.90;99.90
31661;DHT22;18267;52.234;7.444;2022-11-24T16:10:30;8.80;99.90
31661;DHT22;18267;52.234;7.444;2022-11-24T16:12:57;8.90;99.90
31661;DHT22;18267;52.234;7.444;2022-11-24T16:15:22;8.80;99.90
31661;DHT22;18267;52.234;7.444;2022-11-24T16:17:48;8.80;99.90
31661;DHT22;18267;52.234;7.444;2022-11-24T16:20:14;8.70;99.90
31661;DHT22;18267;52.234;7.444;2022-11-24T16:22:40;8.70;99.90
31661;DHT22;18267;52.234;7.444;2022-11-24T16:25:06;8.70;99.90
31661;DHT22;18267;52.234;7.444;2022-11-24T16:27:32;8.60;99.90
31661;DHT22;18267;52.234;7.444;2022-11-24T16:29:57;8.60;99.90
31661;DHT22;18267;52.234;7.444;2022-11-24T16:32:23;8.50;99.90
31661;DHT22;18267;52.234;7.444;2022-11-24T16:34:48;8.60;99.90
31661;DHT22;18267;52.234;7.444;2022-11-24T16:37:14;8.60;99.90
31661;DHT22;18267;52.234;7.444;2022-11-24T16:39:39;8.60;99.90
31661;DHT22;18267;52.234;7.444;2022-11-24T16:42:05;8.50;99.90
31661;DHT22;18267;52.234;7.444;2022-11-24T16:44:31;8.50;99.90
31661;DHT22;18267;52.234;7.444;2022-11-24T16:46:58;8.50;99.90
31661;DHT22;18267;52.234;7.444;2022-11-24T16:49:24;8.40;99.90
31661;DHT22;18267;52.234;7.444;2022-11-24T16:51:50;8.40;99.90
31661;DHT22;18267;52.234;7.444;2022-11-24T16:54:15;8.40;99.90
31661;DHT22;18267;52.234;7.444;2022-11-24T16:56:41;8.40;99.90
31661;DHT22;18267;52.234;7.444;2022-11-24T16:59:06;8.40;99.90
31661;DHT22;18267;52.234;7.444;2022-11-24T17:01:32;8.40;99.90
31661;DHT22;18267;52.234;7.444;2022-11-24T17:03:58;8.30;99.90
31661;DHT22;18267;52.234;7.444;2022-11-24T17:06:24;8.20;99.90
31661;DHT22;18267;52.234;7.444;2022-11-24T17:08:49;8.30;99.90
31661;DHT22;18267;52.234;7.444;2022-11-24T17:11:17;8.30;99.90
31661;DHT22;18267;52.234;7.444;2022-11-24T17:13:44;8.30;99.90
31661;DHT22;18267;52.234;7.444;2022-11-24T17:16:12;8.30;99.90
31661;DHT22;18267;52.234;7.444;2022-11-24T17:18:38;8.20;99.90
31661;DHT22;18267;52.234;7.444;2022-11-24T17:21:05;8.20;99.90
31661;DHT22;18267;52.234;7.444;2022-11-24T17:23:31;8.20;99.90
31661;DHT22;18267;52.234;7.444;2022-11-24T17:26:01;8.20;99.90
31661;DHT22;18267;52.234;7.444;2022-11-24T17:28:27;8.30;99.90
31661;DHT22;18267;52.234;7.444;2022-11-24T17:30:55;8.20;99.90
31661;DHT22;18267;52.234;7.444;2022-11-24T17:33:20;8.30;99.90
31661;DHT22;18267;52.234;7.444;2022-11-24T17:35:46;8.20;99.90
31661;DHT22;18267;52.234;7.444;2022-11-24T17:38:12;8.20;99.90
31661;DHT22;18267;52.234;7.444;2022-11-24T17:40:37;8.20;99.90